createdAt,value
2023-01-23T00:01:34.661Z,47.90
2023-01-23T00:04:01.513Z,48.03
2023-01-23T00:06:28.637Z,52.10
2023-01-23T00:08:56.660Z,55.00
2023-01-23T00:11:25.987Z,49.93
2023-01-23T00:13:52.972Z,50.50
2023-01-23T00:16:21.307Z,59.47
2023-01-23T00:18:48.190Z,61.53
2023-01-23T00:21:17.551Z,55.93
2023-01-23T00:23:47.129Z,60.77
2023-01-23T00:26:17.388Z,57.80
2023-01-23T00:28:44.797Z,59.10
2023-01-23T00:31:15.399Z,70.03
2023-01-23T00:33:43.387Z,73.30
2023-01-23T00:36:10.643Z,70.80
2023-01-23T00:38:38.054Z,62.37
2023-01-23T00:41:08.278Z,72.60
2023-01-23T00:43:35.007Z,71.40
2023-01-23T00:46:01.941Z,73.37
2023-01-23T00:48:28.697Z,63.33
2023-01-23T00:50:55.164Z,64.30
2023-01-23T00:53:22.261Z,70.10
2023-01-23T00:55:50.353Z,74.73
2023-01-23T00:58:17.074Z,77.07
2023-01-23T01:00:43.724Z,84.53
2023-01-23T01:03:10.272Z,74.97
2023-01-23T01:05:36.796Z,70.73
2023-01-23T01:08:03.846Z,78.27
2023-01-23T01:10:32.767Z,70.60
2023-01-23T01:13:02.095Z,73.30
2023-01-23T01:15:29.263Z,63.27
2023-01-23T01:17:55.735Z,60.93
2023-01-23T01:20:23.816Z,72.13
2023-01-23T01:22:50.785Z,80.23
2023-01-23T01:25:17.428Z,68.50
2023-01-23T01:27:43.896Z,64.43
2023-01-23T01:30:12.280Z,66.43
2023-01-23T01:32:40.169Z,73.53
2023-01-23T01:35:07.299Z,56.90
2023-01-23T01:37:34.828Z,62.83
2023-01-23T01:40:01.557Z,54.77
2023-01-23T01:42:28.414Z,56.47
2023-01-23T01:44:59.815Z,59.53
2023-01-23T01:47:26.479Z,68.23
2023-01-23T01:49:56.174Z,58.07
2023-01-23T01:52:23.411Z,62.93
2023-01-23T01:54:57.017Z,62.23
2023-01-23T01:57:35.974Z,57.03
2023-01-23T02:00:08.761Z,55.67
2023-01-23T02:02:38.784Z,53.47
2023-01-23T02:05:14.653Z,54.10
2023-01-23T02:07:55.158Z,54.43
2023-01-23T02:10:23.079Z,47.17
2023-01-23T02:12:51.574Z,55.30
2023-01-23T02:15:23.446Z,54.20
2023-01-23T02:17:51.537Z,57.47
2023-01-23T02:20:22.622Z,61.73
2023-01-23T02:23:12.582Z,58.13
2023-01-23T02:25:53.350Z,56.07
2023-01-23T02:28:20.567Z,59.10
2023-01-23T02:30:48.039Z,56.20
2023-01-23T02:33:21.050Z,54.70
2023-01-23T02:35:48.299Z,52.23
2023-01-23T02:38:15.061Z,56.70
2023-01-23T02:40:42.817Z,61.87
2023-01-23T02:43:13.912Z,57.10
2023-01-23T02:45:40.519Z,63.40
2023-01-23T02:48:08.881Z,53.97
2023-01-23T02:50:35.392Z,65.77
2023-01-23T02:53:02.446Z,58.20
2023-01-23T02:55:33.393Z,57.17
2023-01-23T02:58:19.736Z,61.90
2023-01-23T03:00:47.744Z,56.83
2023-01-23T03:03:15.980Z,54.97
2023-01-23T03:05:42.777Z,51.60
2023-01-23T03:08:09.581Z,60.40
2023-01-23T03:10:36.097Z,54.53
2023-01-23T03:13:04.595Z,64.63
2023-01-23T03:15:31.529Z,59.33
2023-01-23T03:17:58.243Z,56.57
2023-01-23T03:20:26.781Z,55.97
2023-01-23T03:22:54.702Z,52.00
2023-01-23T03:25:21.240Z,54.40
2023-01-23T03:27:48.456Z,50.87
2023-01-23T03:30:16.946Z,55.60
2023-01-23T03:32:44.661Z,49.57
2023-01-23T03:35:14.289Z,53.80
2023-01-23T03:37:40.795Z,53.60
2023-01-23T03:40:26.662Z,53.70
2023-01-23T03:42:53.164Z,58.03
2023-01-23T03:45:19.561Z,53.80
2023-01-23T03:47:46.124Z,55.63
2023-01-23T03:50:22.294Z,55.53
2023-01-23T03:52:49.099Z,50.13
2023-01-23T03:55:15.904Z,50.70
2023-01-23T03:57:42.298Z,53.23
2023-01-23T04:00:09.538Z,54.17
2023-01-23T04:02:36.144Z,50.10
2023-01-23T04:05:02.643Z,52.10
2023-01-23T04:07:29.185Z,53.60
2023-01-23T04:09:56.155Z,50.57
2023-01-23T04:12:22.687Z,51.40
2023-01-23T04:14:49.100Z,45.17
2023-01-23T04:17:16.001Z,48.67
2023-01-23T04:19:42.506Z,49.43
2023-01-23T04:22:10.390Z,52.90
2023-01-23T04:24:36.862Z,47.10
2023-01-23T04:27:04.323Z,46.33
2023-01-23T04:29:31.000Z,53.57
2023-01-23T04:31:57.519Z,57.43
2023-01-23T04:34:23.895Z,55.70
2023-01-23T04:36:50.316Z,61.50
2023-01-23T04:39:16.878Z,50.93
2023-01-23T04:41:43.278Z,53.33
2023-01-23T04:44:22.107Z,60.20
2023-01-23T04:46:50.711Z,58.77
2023-01-23T04:49:18.711Z,58.73
2023-01-23T04:51:48.036Z,61.57
2023-01-23T04:54:14.896Z,63.63
2023-01-23T04:56:41.467Z,60.83
2023-01-23T04:59:09.096Z,52.37
2023-01-23T05:01:36.302Z,54.67
2023-01-23T05:04:02.919Z,59.80
2023-01-23T05:06:29.589Z,52.50
2023-01-23T05:08:55.959Z,62.30
2023-01-23T05:11:22.431Z,56.63
2023-01-23T05:13:48.925Z,58.43
2023-01-23T05:16:15.703Z,56.83
2023-01-23T05:18:42.162Z,52.87
2023-01-23T05:21:08.564Z,64.53
2023-01-23T05:23:35.091Z,59.47
2023-01-23T05:26:01.677Z,62.10
2023-01-23T05:28:28.117Z,61.83
2023-01-23T05:30:54.663Z,72.20
2023-01-23T05:33:21.317Z,70.73
2023-01-23T05:35:48.884Z,83.50
2023-01-23T05:38:15.272Z,73.20
2023-01-23T05:40:41.876Z,70.07
2023-01-23T05:43:13.540Z,73.30
2023-01-23T05:45:39.930Z,66.97
2023-01-23T05:48:06.782Z,77.47
2023-01-23T05:50:34.486Z,74.17
2023-01-23T05:53:01.076Z,76.50
2023-01-23T05:55:29.901Z,71.93
2023-01-23T05:57:56.319Z,67.87
2023-01-23T06:00:24.281Z,68.93
2023-01-23T06:02:50.857Z,70.93
2023-01-23T06:05:17.302Z,68.47
2023-01-23T06:07:44.730Z,67.83
2023-01-23T06:10:11.393Z,68.30
2023-01-23T06:12:37.899Z,71.30
2023-01-23T06:15:04.885Z,75.07
2023-01-23T06:17:31.300Z,67.20
2023-01-23T06:19:59.301Z,71.20
2023-01-23T06:22:25.801Z,70.60
2023-01-23T06:24:52.660Z,65.03
2023-01-23T06:27:19.193Z,59.30
2023-01-23T06:29:58.791Z,66.43
2023-01-23T06:32:26.788Z,67.67
2023-01-23T06:34:53.277Z,69.77
2023-01-23T06:37:19.897Z,65.43
2023-01-23T06:39:46.286Z,65.63
2023-01-23T06:42:12.707Z,67.40
2023-01-23T06:44:47.243Z,69.87
2023-01-23T06:47:13.937Z,77.67
2023-01-23T06:49:40.518Z,65.43
2023-01-23T06:52:07.040Z,62.90
2023-01-23T06:54:34.110Z,64.80
2023-01-23T06:57:00.508Z,60.73
2023-01-23T06:59:26.917Z,61.47
2023-01-23T07:01:53.527Z,64.33
2023-01-23T07:04:20.132Z,74.03
2023-01-23T07:06:46.901Z,57.67
2023-01-23T07:09:13.322Z,56.73
2023-01-23T07:11:40.253Z,57.10
2023-01-23T07:14:06.946Z,61.03
2023-01-23T07:16:35.267Z,61.70
2023-01-23T07:19:02.688Z,64.93
2023-01-23T07:21:29.168Z,59.37
2023-01-23T07:23:55.793Z,62.17
2023-01-23T07:26:22.419Z,66.50
2023-01-23T07:28:48.834Z,64.23
2023-01-23T07:31:15.407Z,60.93
2023-01-23T07:33:44.286Z,65.80
2023-01-23T07:36:13.855Z,67.20
2023-01-23T07:38:40.963Z,68.20
2023-01-23T07:41:07.403Z,73.87
2023-01-23T07:43:35.469Z,65.43
2023-01-23T07:46:02.713Z,59.00
2023-01-23T07:48:29.674Z,66.30
2023-01-23T07:50:56.289Z,63.03
2023-01-23T07:53:22.762Z,63.73
2023-01-23T07:55:49.148Z,63.20
2023-01-23T07:58:15.930Z,67.33
2023-01-23T08:00:42.440Z,66.47
2023-01-23T08:03:08.955Z,62.83
2023-01-23T08:05:35.726Z,60.73
2023-01-23T08:08:13.136Z,68.40
2023-01-23T08:10:40.917Z,64.20
2023-01-23T08:13:07.582Z,67.97
2023-01-23T08:15:33.977Z,61.43
2023-01-23T08:18:08.713Z,64.73
2023-01-23T08:20:36.300Z,62.20
2023-01-23T08:23:02.818Z,68.03
2023-01-23T08:25:29.439Z,66.90
2023-01-23T08:27:56.901Z,63.03
2023-01-23T08:30:23.305Z,60.77
2023-01-23T08:32:49.654Z,63.73
2023-01-23T08:35:16.429Z,62.57
2023-01-23T08:37:45.036Z,57.70
2023-01-23T08:40:11.916Z,64.77
2023-01-23T08:42:38.290Z,59.10
2023-01-23T08:45:05.210Z,61.80
2023-01-23T08:47:36.377Z,54.87
2023-01-23T08:50:06.955Z,63.30
2023-01-23T08:52:35.329Z,58.53
2023-01-23T08:55:02.077Z,60.10
2023-01-23T08:57:28.693Z,129.73
2023-01-23T08:59:59.482Z,100.40
2023-01-23T09:02:25.921Z,62.40
2023-01-23T09:04:52.600Z,62.83
2023-01-23T09:07:18.967Z,61.87
2023-01-23T09:09:45.436Z,62.97
2023-01-23T09:12:11.989Z,71.20
2023-01-23T09:14:38.427Z,67.50
2023-01-23T09:17:06.021Z,70.77
2023-01-23T09:19:32.694Z,68.13
2023-01-23T09:21:59.059Z,65.17
2023-01-23T09:24:25.519Z,62.70
2023-01-23T09:26:51.934Z,68.47
2023-01-23T09:29:18.287Z,58.83
2023-01-23T09:31:44.672Z,62.57
2023-01-23T09:34:11.091Z,67.50
2023-01-23T09:36:43.359Z,62.57
2023-01-23T09:39:10.587Z,66.50
2023-01-23T09:41:39.157Z,64.73
2023-01-23T09:44:07.535Z,93.63
2023-01-23T09:46:57.778Z,63.33
2023-01-23T09:49:58.545Z,64.13
2023-01-23T09:52:31.484Z,64.47
2023-01-23T09:55:13.463Z,64.17
2023-01-23T09:57:47.029Z,60.53
2023-01-23T10:00:27.565Z,65.23
2023-01-23T10:02:54.473Z,59.07
2023-01-23T10:05:27.562Z,57.87
2023-01-23T10:08:19.332Z,59.83
2023-01-23T10:11:05.565Z,58.53
2023-01-23T10:13:48.110Z,62.40
2023-01-23T10:16:50.085Z,64.30
2023-01-23T10:19:32.333Z,55.30
2023-01-23T10:22:14.969Z,59.47
2023-01-23T10:24:52.423Z,57.70
2023-01-23T10:27:24.191Z,58.93
2023-01-23T10:30:03.747Z,56.77
2023-01-23T10:32:32.341Z,55.73
2023-01-23T10:35:06.404Z,55.30
2023-01-23T10:37:53.032Z,57.03
2023-01-23T10:40:40.625Z,51.40
2023-01-23T10:43:17.289Z,51.33
2023-01-23T10:45:46.023Z,48.37
2023-01-23T10:48:49.628Z,52.93
2023-01-23T10:51:45.032Z,49.53
2023-01-23T10:54:31.304Z,49.00
2023-01-23T10:57:22.174Z,49.30
2023-01-23T10:59:57.866Z,49.83
2023-01-23T11:02:32.788Z,52.07
2023-01-23T11:05:01.984Z,46.87
2023-01-23T11:07:33.417Z,45.23
2023-01-23T11:10:05.331Z,46.30
2023-01-23T11:12:34.465Z,49.70
2023-01-23T11:15:22.969Z,46.80
2023-01-23T11:17:51.127Z,50.43
2023-01-23T11:20:31.845Z,51.07
2023-01-23T11:23:07.031Z,53.47
2023-01-23T11:25:40.493Z,51.80
2023-01-23T11:28:27.829Z,51.60
2023-01-23T11:31:15.971Z,58.10
2023-01-23T11:33:52.111Z,57.77
2023-01-23T11:36:18.466Z,51.50
2023-01-23T11:39:05.043Z,53.73
2023-01-23T11:41:34.202Z,54.80
2023-01-23T11:44:10.024Z,47.13
2023-01-23T11:46:46.449Z,50.33
2023-01-23T11:49:15.870Z,49.40
2023-01-23T11:51:49.136Z,49.93
2023-01-23T11:54:34.781Z,54.97
2023-01-23T11:57:03.477Z,52.47
2023-01-23T11:59:53.151Z,57.63
2023-01-23T12:02:46.982Z,50.70
2023-01-23T12:05:32.248Z,53.87
2023-01-23T12:08:36.664Z,55.83
2023-01-23T12:11:14.212Z,58.13
2023-01-23T12:13:48.600Z,56.83
2023-01-23T12:16:30.049Z,66.43
2023-01-23T12:19:21.592Z,56.60
2023-01-23T12:21:56.635Z,56.47
2023-01-23T12:24:53.622Z,58.53
2023-01-23T12:27:27.361Z,56.40
2023-01-23T12:30:15.739Z,53.37
2023-01-23T12:32:52.980Z,57.90
2023-01-23T12:35:37.556Z,60.27
2023-01-23T12:38:09.797Z,61.77
2023-01-23T12:41:12.496Z,62.03
2023-01-23T12:43:49.397Z,62.97
2023-01-23T12:46:42.261Z,65.87
2023-01-23T12:49:29.450Z,63.87
2023-01-23T12:52:11.541Z,64.13
2023-01-23T12:54:43.846Z,62.67
2023-01-23T12:57:10.968Z,64.10
2023-01-23T12:59:54.604Z,64.00
2023-01-23T13:02:40.817Z,63.63
2023-01-23T13:05:19.822Z,66.23
2023-01-23T13:08:01.633Z,64.97
2023-01-23T13:11:12.008Z,66.67
2023-01-23T13:13:40.452Z,69.20
2023-01-23T13:16:18.594Z,70.97
2023-01-23T13:19:12.037Z,70.07
2023-01-23T13:21:57.294Z,70.53
2023-01-23T13:24:48.639Z,72.47
2023-01-23T13:27:40.026Z,80.13
2023-01-23T13:30:22.348Z,76.83
2023-01-23T13:32:50.827Z,79.50
2023-01-23T13:35:39.993Z,82.87
2023-01-23T13:38:29.519Z,87.60
2023-01-23T13:41:05.315Z,93.57
2023-01-23T13:43:50.198Z,86.27
2023-01-23T13:46:40.560Z,83.40
2023-01-23T14:27:36.758Z,95.97
2023-01-23T14:30:17.095Z,90.10
2023-01-23T14:32:45.859Z,93.40
2023-01-23T14:35:23.942Z,103.23
2023-01-23T14:37:52.598Z,95.23
2023-01-23T14:40:27.113Z,95.87
2023-01-23T14:43:07.768Z,95.77
2023-01-23T14:45:35.619Z,100.83
2023-01-23T14:48:06.706Z,100.07
2023-01-23T14:50:34.207Z,97.57
2023-01-23T14:53:05.970Z,99.80
2023-01-23T14:55:36.826Z,92.83
2023-01-23T14:58:03.872Z,100.07
2023-01-23T15:00:34.319Z,99.07
2023-01-23T15:03:04.489Z,105.67
2023-01-23T15:05:32.974Z,93.97
2023-01-23T15:08:03.512Z,97.80
2023-01-23T15:10:32.398Z,100.83
2023-01-23T15:13:22.669Z,102.17
2023-01-23T15:15:56.384Z,96.90
2023-01-23T15:18:24.881Z,94.60
2023-01-23T15:20:59.070Z,87.40
2023-01-23T15:23:31.312Z,99.40
2023-01-23T15:26:25.577Z,106.50
2023-01-23T15:28:55.106Z,107.77
2023-01-23T15:31:29.758Z,103.03
2023-01-23T15:34:10.021Z,100.60
2023-01-23T15:36:36.479Z,100.90
2023-01-23T15:39:03.557Z,97.23
2023-01-23T15:42:00.496Z,98.37
2023-01-23T15:44:31.572Z,103.57
2023-01-23T15:47:01.702Z,99.47
2023-01-23T15:49:28.959Z,107.97
2023-01-23T15:52:00.138Z,111.93
2023-01-23T15:54:31.573Z,109.03
2023-01-23T15:57:06.955Z,110.17
2023-01-23T15:59:35.574Z,106.50
2023-01-23T16:02:02.146Z,112.07
2023-01-23T16:04:32.269Z,102.03
2023-01-23T16:07:06.792Z,112.80
2023-01-23T16:09:37.013Z,114.47
2023-01-23T16:12:10.522Z,112.43
2023-01-23T16:14:36.923Z,106.43
2023-01-23T16:17:15.869Z,105.03
2023-01-23T16:19:43.417Z,111.67
2023-01-23T16:22:13.992Z,109.17
2023-01-23T16:24:41.559Z,115.90
2023-01-23T16:27:27.805Z,109.27
2023-01-23T16:29:55.303Z,99.10
2023-01-23T16:32:22.156Z,93.93
2023-01-23T16:34:51.487Z,104.63
2023-01-23T16:37:18.694Z,94.90
2023-01-23T16:39:46.816Z,96.63
2023-01-23T16:42:19.990Z,95.20
2023-01-23T16:44:47.816Z,96.10
2023-01-23T16:47:15.537Z,92.63
2023-01-23T16:49:52.196Z,95.23
2023-01-23T16:52:24.411Z,96.50
2023-01-23T16:54:52.127Z,90.60
2023-01-23T16:57:20.366Z,97.37
2023-01-23T16:59:48.198Z,93.80
2023-01-23T17:02:25.339Z,97.70
2023-01-23T17:04:55.378Z,100.77
2023-01-23T17:07:22.094Z,105.10
2023-01-23T17:09:49.291Z,101.03
2023-01-23T17:12:22.117Z,102.03
2023-01-23T17:14:49.155Z,107.13
2023-01-23T17:17:19.760Z,100.47
2023-01-23T17:19:46.501Z,93.37
2023-01-23T17:22:34.788Z,92.67
2023-01-23T17:25:01.148Z,96.07
2023-01-23T17:27:27.535Z,96.40
2023-01-23T17:29:54.640Z,101.70
2023-01-23T17:32:29.827Z,99.37
2023-01-23T17:34:57.646Z,101.57
2023-01-23T17:37:24.236Z,95.13
2023-01-23T17:39:50.992Z,98.97
2023-01-23T17:42:22.169Z,102.07
2023-01-23T17:44:49.449Z,100.00
2023-01-23T17:47:17.508Z,104.13
2023-01-23T17:49:46.766Z,103.33
2023-01-23T17:52:13.197Z,99.07
2023-01-23T17:54:39.578Z,102.63
2023-01-23T17:57:05.961Z,95.93
2023-01-23T17:59:32.337Z,93.83
2023-01-23T18:02:00.997Z,96.87
2023-01-23T18:04:27.335Z,96.90
2023-01-23T18:06:53.897Z,106.47
2023-01-23T18:09:21.263Z,100.10
2023-01-23T18:11:52.667Z,99.73
2023-01-23T18:14:19.061Z,98.37
2023-01-23T18:16:45.932Z,97.30
2023-01-23T18:19:21.117Z,92.53
2023-01-23T18:21:51.327Z,92.00
2023-01-23T18:24:27.409Z,93.90
2023-01-23T18:26:59.809Z,86.03
2023-01-23T18:29:57.993Z,93.50
2023-01-23T18:32:37.261Z,90.10
2023-01-23T18:35:25.778Z,89.57
2023-01-23T18:38:15.174Z,93.87
2023-01-23T18:40:47.872Z,91.10
2023-01-23T18:43:34.798Z,92.60
2023-01-23T18:46:01.791Z,88.13
2023-01-23T18:48:29.410Z,95.17
2023-01-23T18:51:34.940Z,104.03
2023-01-23T18:54:29.884Z,93.47
2023-01-23T18:57:02.348Z,89.83
2023-01-23T18:59:28.864Z,92.33
2023-01-23T19:02:21.870Z,93.23
2023-01-23T19:05:19.319Z,99.43
2023-01-23T19:07:46.814Z,97.13
2023-01-23T19:10:18.226Z,94.57
2023-01-23T19:13:07.648Z,96.13
2023-01-23T19:15:41.798Z,95.00
2023-01-23T19:18:50.543Z,98.53
2023-01-23T19:21:26.714Z,98.60
2023-01-23T19:24:06.777Z,92.43
2023-01-23T19:26:35.480Z,91.13
2023-01-23T19:29:19.957Z,93.63
2023-01-23T19:32:03.705Z,94.00
2023-01-23T19:34:31.644Z,95.70
2023-01-23T19:36:58.841Z,96.43
2023-01-23T19:39:25.652Z,97.47
2023-01-23T19:41:53.569Z,107.37
2023-01-23T19:44:24.968Z,101.33
2023-01-23T19:46:52.335Z,98.70
2023-01-23T19:49:18.935Z,105.10
2023-01-23T19:51:45.704Z,111.33
2023-01-23T19:54:13.424Z,102.00
2023-01-23T19:56:41.102Z,105.77
2023-01-23T19:59:07.596Z,117.37
2023-01-23T20:01:38.439Z,101.27
2023-01-23T20:04:12.523Z,99.77
2023-01-23T20:06:40.752Z,102.53
2023-01-23T20:09:08.401Z,103.33
2023-01-23T20:11:36.425Z,103.50
2023-01-23T20:14:03.728Z,107.73
2023-01-23T20:16:30.264Z,108.40
2023-01-23T20:18:56.877Z,106.23
2023-01-23T20:21:25.170Z,108.70
2023-01-23T20:23:52.737Z,104.73
2023-01-23T20:26:21.349Z,119.10
2023-01-23T20:28:55.759Z,109.97
2023-01-23T20:31:23.135Z,108.57
2023-01-23T20:33:50.191Z,110.73
2023-01-23T20:36:16.889Z,113.20
2023-01-23T20:38:43.479Z,110.47
2023-01-23T20:41:15.553Z,109.20
2023-01-23T20:43:45.506Z,107.73
2023-01-23T20:46:14.123Z,108.00
2023-01-23T20:48:44.280Z,110.37
2023-01-23T20:51:13.220Z,106.90
2023-01-23T20:53:40.194Z,106.70
2023-01-23T20:56:13.664Z,107.50
2023-01-23T20:59:01.864Z,111.33
2023-01-23T21:01:58.655Z,115.83
2023-01-23T21:04:33.932Z,116.93
2023-01-23T21:07:01.306Z,109.30
2023-01-23T21:09:27.909Z,118.10
2023-01-23T21:11:55.062Z,120.47
2023-01-23T21:14:22.245Z,122.30
2023-01-23T21:16:48.880Z,114.60
2023-01-23T21:19:15.816Z,114.47
2023-01-23T21:21:43.143Z,114.63
2023-01-23T21:24:09.956Z,119.40
2023-01-23T21:26:36.779Z,112.27
2023-01-23T21:29:04.179Z,126.37
2023-01-23T21:31:33.796Z,117.37
2023-01-23T21:34:07.777Z,120.80
2023-01-23T21:36:36.392Z,122.53
2023-01-23T21:39:03.876Z,108.73
2023-01-23T21:41:30.728Z,109.90
2023-01-23T21:43:57.297Z,109.70
2023-01-23T21:46:23.918Z,108.17
2023-01-23T21:48:51.923Z,120.07
2023-01-23T21:51:23.811Z,125.33
2023-01-23T21:53:50.458Z,118.70
2023-01-23T21:56:19.934Z,105.13
2023-01-23T21:58:47.203Z,103.87
2023-01-23T22:01:39.547Z,114.07
2023-01-23T22:04:11.226Z,112.13
2023-01-23T22:06:40.436Z,110.70
2023-01-23T22:09:07.666Z,110.60
2023-01-23T22:11:34.356Z,107.73
2023-01-23T22:14:01.295Z,111.03
2023-01-23T22:16:46.473Z,111.17
2023-01-23T22:19:15.326Z,110.63
2023-01-23T22:21:42.421Z,103.83
2023-01-23T22:24:09.112Z,100.60
2023-01-23T22:26:35.793Z,111.63
2023-01-23T22:29:02.188Z,109.33
2023-01-23T22:31:31.943Z,114.67
2023-01-23T22:33:58.507Z,108.20
2023-01-23T22:36:25.135Z,115.43
